sensor_id;sensor_type;location;lat;lon;timestamp;pressure;altitude;pressure_sealevel;temperature;humidity
69405;BME280;57084;52.046;5.632;2023-01-25T00:00:00;103720;;;3.4;68.0
69405;BME280;57084;52.046;5.632;2023-01-25T00:01:04;103720;;;3.4;68.0
69405;BME280;57084;52.046;5.632;2023-01-25T00:02:00;103720;;;3.4;68.0
69405;BME280;57084;52.046;5.632;2023-01-25T00:03:00;103720;;;3.4;68.0
69405;BME280;57084;52.046;5.632;2023-01-25T00:04:00;103720;;;3.4;68.0
69405;BME280;57084;52.046;5.632;2023-01-25T00:05:00;103720;;;3.4;68.0
69405;BME280;57084;52.046;5.632;2023-01-25T00:06:00;103720;;;3.4;68.0
69405;BME280;57084;52.046;5.632;2023-01-25T00:07:00;103720;;;3.4;68.0
69405;BME280;57084;52.046;5.632;2023-01-25T00:08:00;103720;;;3.3;68.0
69405;BME280;57084;52.046;5.632;2023-01-25T00:09:00;103720;;;3.3;68.0
69405;BME280;57084;52.046;5.632;2023-01-25T00:10:00;103720;;;3.3;68.0
69405;BME280;57084;52.046;5.632;2023-01-25T00:11:00;103720;;;3.3;68.0
69405;BME280;57084;52.046;5.632;2023-01-25T00:12:00;103710;;;3.3;68.0
69405;BME280;57084;52.046;5.632;2023-01-25T00:13:00;103710;;;3.3;68.0
69405;BME280;57084;52.046;5.632;2023-01-25T00:14:00;103710;;;3.3;68.0
69405;BME280;57084;52.046;5.632;2023-01-25T00:15:00;103710;;;3.3;68.0
69405;BME280;57084;52.046;5.632;2023-01-25T00:16:00;103710;;;3.3;68.0
69405;BME280;57084;52.046;5.632;2023-01-25T00:17:00;103710;;;3.3;68.0
69405;BME280;57084;52.046;5.632;2023-01-25T00:18:00;103710;;;3.3;68.0
69405;BME280;57084;52.046;5.632;2023-01-25T00:19:00;103710;;;3.3;68.0
69405;BME280;57084;52.046;5.632;2023-01-25T00:20:00;103710;;;3.3;68.0
69405;BME280;57084;52.046;5.632;2023-01-25T00:21:10;103710;;;3.3;68.0
69405;BME280;57084;52.046;5.632;2023-01-25T00:22:00;103700;;;3.3;68.0
69405;BME280;57084;52.046;5.632;2023-01-25T00:23:00;103700;;;3.3;68.0
69405;BME280;57084;52.046;5.632;2023-01-25T00:24:00;103700;;;3.3;67.9
69405;BME280;57084;52.046;5.632;2023-01-25T00:25:00;103700;;;3.3;67.9
69405;BME280;57084;52.046;5.632;2023-01-25T00:26:00;103700;;;3.4;67.9
69405;BME280;57084;52.046;5.632;2023-01-25T00:27:00;103700;;;3.4;67.9
69405;BME280;57084;52.046;5.632;2023-01-25T00:28:00;103700;;;3.4;67.8
69405;BME280;57084;52.046;5.632;2023-01-25T00:29:01;103700;;;3.4;67.8
69405;BME280;57084;52.046;5.632;2023-01-25T00:30:00;103700;;;3.4;67.8
69405;BME280;57084;52.046;5.632;2023-01-25T00:31:00;103700;;;3.4;67.8
69405;BME280;57084;52.046;5.632;2023-01-25T00:32:07;103700;;;3.4;67.8
69405;BME280;57084;52.046;5.632;2023-01-25T00:33:01;103700;;;3.4;67.8
69405;BME280;57084;52.046;5.632;2023-01-25T00:34:00;103690;;;3.4;67.8
69405;BME280;57084;52.046;5.632;2023-01-25T00:35:00;103690;;;3.4;67.8
69405;BME280;57084;52.046;5.632;2023-01-25T00:36:00;103690;;;3.4;67.8
69405;BME280;57084;52.046;5.632;2023-01-25T00:37:00;103690;;;3.4;67.8
69405;BME280;57084;52.046;5.632;2023-01-25T00:38:00;103690;;;3.4;67.8
69405;BME280;57084;52.046;5.632;2023-01-25T00:39:00;103690;;;3.4;67.8
69405;BME280;57084;52.046;5.632;2023-01-25T00:40:00;103690;;;3.4;67.8
69405;BME280;57084;52.046;5.632;2023-01-25T00:41:00;103690;;;3.4;67.8
69405;BME280;57084;52.046;5.632;2023-01-25T00:42:00;103690;;;3.4;67.8
69405;BME280;57084;52.046;5.632;2023-01-25T00:43:00;103690;;;3.4;67.8
69405;BME280;57084;52.046;5.632;2023-01-25T00:44:00;103690;;;3.4;67.7
69405;BME280;57084;52.046;5.632;2023-01-25T00:45:00;103690;;;3.4;67.7
69405;BME280;57084;52.046;5.632;2023-01-25T00:46:00;103690;;;3.4;67.7
69405;BME280;57084;52.046;5.632;2023-01-25T00:47:00;103690;;;3.4;67.7
69405;BME280;57084;52.046;5.632;2023-01-25T00:48:00;103690;;;3.3;67.7
69405;BME280;57084;52.046;5.632;2023-01-25T00:49:00;103690;;;3.3;67.7
69405;BME280;57084;52.046;5.632;2023-01-25T00:50:00;103690;;;3.3;67.8
69405;BME280;57084;52.046;5.632;2023-01-25T00:51:00;103690;;;3.3;67.8
69405;BME280;57084;52.046;5.632;2023-01-25T00:52:00;103690;;;3.2;67.9
69405;BME280;57084;52.046;5.632;2023-01-25T00:53:00;103690;;;3.2;67.9
69405;BME280;57084;52.046;5.632;2023-01-25T00:54:00;103690;;;3.2;67.8
69405;BME280;57084;52.046;5.632;2023-01-25T00:55:00;103690;;;3.2;67.8
69405;BME280;57084;52.046;5.632;2023-01-25T00:56:00;103690;;;3.2;67.9
69405;BME280;57084;52.046;5.632;2023-01-25T00:57:00;103690;;;3.2;67.9
69405;BME280;57084;52.046;5.632;2023-01-25T00:58:00;103690;;;3.2;67.9
69405;BME280;57084;52.046;5.632;2023-01-25T00:59:00;103690;;;3.2;67.9
69405;BME280;57084;52.046;5.632;2023-01-25T01:00:00;103680;;;3.2;67.8
69405;BME280;57084;52.046;5.632;2023-01-25T01:01:00;103680;;;3.2;67.8
69405;BME280;57084;52.046;5.632;2023-01-25T01:02:00;103680;;;3.2;67.8
69405;BME280;57084;52.046;5.632;2023-01-25T01:03:00;103680;;;3.2;67.8
69405;BME280;57084;52.046;5.632;2023-01-25T01:04:00;103680;;;3.2;67.8
69405;BME280;57084;52.046;5.632;2023-01-25T01:05:00;103680;;;3.2;67.8
69405;BME280;57084;52.046;5.632;2023-01-25T01:06:01;103680;;;3.2;67.8
69405;BME280;57084;52.046;5.632;2023-01-25T01:07:00;103680;;;3.2;67.8
69405;BME280;57084;52.046;5.632;2023-01-25T01:08:00;103680;;;3.2;67.8
69405;BME280;57084;52.046;5.632;2023-01-25T01:09:00;103680;;;3.2;67.8
69405;BME280;57084;52.046;5.632;2023-01-25T01:10:00;103680;;;3.2;67.9
69405;BME280;57084;52.046;5.632;2023-01-25T01:11:01;103680;;;3.2;67.9
69405;BME280;57084;52.046;5.632;2023-01-25T01:12:00;103680;;;3.2;67.8
69405;BME280;57084;52.046;5.632;2023-01-25T01:13:00;103680;;;3.2;67.8
69405;BME280;57084;52.046;5.632;2023-01-25T01:14:00;103680;;;3.2;67.7
69405;BME280;57084;52.046;5.632;2023-01-25T01:15:00;103680;;;3.2;67.7
69405;BME280;57084;52.046;5.632;2023-01-25T01:16:01;103680;;;3.2;67.7
69405;BME280;57084;52.046;5.632;2023-01-25T01:17:00;103680;;;3.2;67.7
69405;BME280;57084;52.046;5.632;2023-01-25T01:18:00;103680;;;3.3;67.7
69405;BME280;57084;52.046;5.632;2023-01-25T01:19:00;103680;;;3.3;67.7
69405;BME280;57084;52.046;5.632;2023-01-25T01:20:00;103680;;;3.3;67.6
69405;BME280;57084;52.046;5.632;2023-01-25T01:21:00;103680;;;3.3;67.6
69405;BME280;57084;52.046;5.632;2023-01-25T01:22:00;103680;;;3.2;67.6
69405;BME280;57084;52.046;5.632;2023-01-25T01:23:00;103680;;;3.2;67.6
69405;BME280;57084;52.046;5.632;2023-01-25T01:24:00;103680;;;3.2;67.6
69405;BME280;57084;52.046;5.632;2023-01-25T01:25:00;103680;;;3.2;67.6
69405;BME280;57084;52.046;5.632;2023-01-25T01:26:00;103680;;;3.2;67.6
69405;BME280;57084;52.046;5.632;2023-01-25T01:27:00;103680;;;3.2;67.6
69405;BME280;57084;52.046;5.632;2023-01-25T01:28:00;103680;;;3.2;67.6
69405;BME280;57084;52.046;5.632;2023-01-25T01:29:00;103680;;;3.2;67.6
69405;BME280;57084;52.046;5.632;2023-01-25T01:30:00;103680;;;3.2;67.6
69405;BME280;57084;52.046;5.632;2023-01-25T01:31:00;103680;;;3.2;67.6
69405;BME280;57084;52.046;5.632;2023-01-25T01:32:00;103680;;;3.3;67.6
69405;BME280;57084;52.046;5.632;2023-01-25T01:33:00;103680;;;3.3;67.6
69405;BME280;57084;52.046;5.632;2023-01-25T01:34:00;103680;;;3.3;67.5
69405;BME280;57084;52.046;5.632;2023-01-25T01:35:00;103680;;;3.3;67.5
69405;BME280;57084;52.046;5.632;2023-01-25T01:36:05;103680;;;3.2;67.5
69405;BME280;57084;52.046;5.632;2023-01-25T01:37:00;103680;;;3.2;67.5
69405;BME280;57084;52.046;5.632;2023-01-25T01:38:00;103680;;;3.2;67.5
69405;BME280;57084;52.046;5.632;2023-01-25T01:39:00;103680;;;3.2;67.5
69405;BME280;57084;52.046;5.632;2023-01-25T01:40:00;103680;;;3.2;67.6
69405;BME280;57084;52.046;5.632;2023-01-25T01:41:00;103680;;;3.2;67.6
69405;BME280;57084;52.046;5.632;2023-01-25T01:42:00;103680;;;3.2;67.6
69405;BME280;57084;52.046;5.632;2023-01-25T01:43:01;103680;;;3.2;67.6
69405;BME280;57084;52.046;5.632;2023-01-25T01:44:00;103680;;;3.2;67.6
69405;BME280;57084;52.046;5.632;2023-01-25T01:45:00;103680;;;3.2;67.6
69405;BME280;57084;52.046;5.632;2023-01-25T01:46:01;103680;;;3.2;67.6
69405;BME280;57084;52.046;5.632;2023-01-25T01:47:00;103680;;;3.2;67.6
69405;BME280;57084;52.046;5.632;2023-01-25T01:48:00;103680;;;3.2;67.6
69405;BME280;57084;52.046;5.632;2023-01-25T01:49:01;103680;;;3.2;67.6
69405;BME280;57084;52.046;5.632;2023-01-25T01:50:01;103680;;;3.2;67.6
69405;BME280;57084;52.046;5.632;2023-01-25T01:51:01;103680;;;3.2;67.6
69405;BME280;57084;52.046;5.632;2023-01-25T01:52:01;103680;;;3.2;67.6
69405;BME280;57084;52.046;5.632;2023-01-25T01:53:00;103680;;;3.2;67.6
69405;BME280;57084;52.046;5.632;2023-01-25T01:54:03;103670;;;3.2;67.5
69405;BME280;57084;52.046;5.632;2023-01-25T01:55:03;103670;;;3.2;67.5
69405;BME280;57084;52.046;5.632;2023-01-25T01:56:01;103670;;;3.2;67.5
69405;BME280;57084;52.046;5.632;2023-01-25T01:57:01;103670;;;3.2;67.5
69405;BME280;57084;52.046;5.632;2023-01-25T01:58:00;103660;;;3.2;67.5
69405;BME280;57084;52.046;5.632;2023-01-25T01:59:00;103660;;;3.2;67.5
69405;BME280;57084;52.046;5.632;2023-01-25T02:00:02;103660;;;3.2;67.5
69405;BME280;57084;52.046;5.632;2023-01-25T02:01:00;103660;;;3.2;67.5
69405;BME280;57084;52.046;5.632;2023-01-25T02:02:00;103660;;;3.2;67.5
69405;BME280;57084;52.046;5.632;2023-01-25T02:03:00;103660;;;3.2;67.5
69405;BME280;57084;52.046;5.632;2023-01-25T02:04:00;103660;;;3.2;67.5
69405;BME280;57084;52.046;5.632;2023-01-25T02:05:02;103660;;;3.2;67.5
69405;BME280;57084;52.046;5.632;2023-01-25T02:06:00;103660;;;3.2;67.4
69405;BME280;57084;52.046;5.632;2023-01-25T02:07:01;103660;;;3.2;67.4
69405;BME280;57084;52.046;5.632;2023-01-25T02:08:00;103660;;;3.2;67.4
69405;BME280;57084;52.046;5.632;2023-01-25T02:09:00;103660;;;3.2;67.4
69405;BME280;57084;52.046;5.632;2023-01-25T02:10:01;103650;;;3.2;67.4
69405;BME280;57084;52.046;5.632;2023-01-25T02:11:00;103650;;;3.2;67.4
69405;BME280;57084;52.046;5.632;2023-01-25T02:12:00;103650;;;3.2;67.4
69405;BME280;57084;52.046;5.632;2023-01-25T02:13:00;103650;;;3.2;67.4
69405;BME280;57084;52.046;5.632;2023-01-25T02:14:00;103650;;;3.2;67.4
69405;BME280;57084;52.046;5.632;2023-01-25T02:15:00;103650;;;3.2;67.4
69405;BME280;57084;52.046;5.632;2023-01-25T02:16:00;103650;;;3.2;67.4
69405;BME280;57084;52.046;5.632;2023-01-25T02:17:00;103650;;;3.2;67.4
69405;BME280;57084;52.046;5.632;2023-01-25T02:18:00;103650;;;3.2;67.4
69405;BME280;57084;52.046;5.632;2023-01-25T02:19:00;103650;;;3.2;67.4
69405;BME280;57084;52.046;5.632;2023-01-25T02:20:01;103650;;;3.2;67.4
69405;BME280;57084;52.046;5.632;2023-01-25T02:21:00;103650;;;3.2;67.4
69405;BME280;57084;52.046;5.632;2023-01-25T02:22:00;103650;;;3.2;67.4
69405;BME280;57084;52.046;5.632;2023-01-25T02:23:01;103650;;;3.2;67.4
69405;BME280;57084;52.046;5.632;2023-01-25T02:24:02;103650;;;3.2;67.3
69405;BME280;57084;52.046;5.632;2023-01-25T02:25:03;103650;;;3.2;67.3
69405;BME280;57084;52.046;5.632;2023-01-25T02:26:01;103640;;;3.1;67.4
69405;BME280;57084;52.046;5.632;2023-01-25T02:27:00;103640;;;3.1;67.4
69405;BME280;57084;52.046;5.632;2023-01-25T02:28:02;103650;;;3.1;67.5
69405;BME280;57084;52.046;5.632;2023-01-25T02:29:01;103650;;;3.1;67.5
69405;BME280;57084;52.046;5.632;2023-01-25T02:30:01;103650;;;3.0;67.5
69405;BME280;57084;52.046;5.632;2023-01-25T02:31:00;103650;;;3.0;67.5
69405;BME280;57084;52.046;5.632;2023-01-25T02:32:01;103650;;;3.0;67.6
69405;BME280;57084;52.046;5.632;2023-01-25T02:33:00;103650;;;3.0;67.6
69405;BME280;57084;52.046;5.632;2023-01-25T02:34:00;103650;;;3.0;67.6
69405;BME280;57084;52.046;5.632;2023-01-25T02:35:00;103650;;;3.0;67.6
69405;BME280;57084;52.046;5.632;2023-01-25T02:36:12;103640;;;3.0;67.6
69405;BME280;57084;52.046;5.632;2023-01-25T02:37:00;103640;;;3.0;67.6
69405;BME280;57084;52.046;5.632;2023-01-25T02:38:00;103650;;;3.0;67.6
69405;BME280;57084;52.046;5.632;2023-01-25T02:39:01;103650;;;3.0;67.6
69405;BME280;57084;52.046;5.632;2023-01-25T02:40:00;103650;;;3.0;67.5
69405;BME280;57084;52.046;5.632;2023-01-25T02:41:01;103650;;;3.0;67.5
69405;BME280;57084;52.046;5.632;2023-01-25T02:42:00;103650;;;3.0;67.6
69405;BME280;57084;52.046;5.632;2023-01-25T02:43:00;103650;;;3.0;67.6
69405;BME280;57084;52.046;5.632;2023-01-25T02:44:01;103640;;;3.0;67.6
69405;BME280;57084;52.046;5.632;2023-01-25T02:45:00;103640;;;3.0;67.6
69405;BME280;57084;52.046;5.632;2023-01-25T02:46:02;103640;;;3.0;67.6
69405;BME280;57084;52.046;5.632;2023-01-25T02:47:00;103640;;;3.0;67.6
69405;BME280;57084;52.046;5.632;2023-01-25T02:48:00;103630;;;3.0;67.6
69405;BME280;57084;52.046;5.632;2023-01-25T02:49:01;103630;;;3.0;67.6
69405;BME280;57084;52.046;5.632;2023-01-25T02:50:00;103630;;;3.0;67.5
69405;BME280;57084;52.046;5.632;2023-01-25T02:51:00;103630;;;3.0;67.5
69405;BME280;57084;52.046;5.632;2023-01-25T02:52:00;103630;;;3.0;67.6
69405;BME280;57084;52.046;5.632;2023-01-25T02:53:00;103630;;;3.0;67.6
69405;BME280;57084;52.046;5.632;2023-01-25T02:54:00;103630;;;3.0;67.6
69405;BME280;57084;52.046;5.632;2023-01-25T02:55:00;103630;;;3.0;67.6
69405;BME280;57084;52.046;5.632;2023-01-25T02:56:00;103630;;;3.0;67.6
69405;BME280;57084;52.046;5.632;2023-01-25T02:57:00;103630;;;3.0;67.6
69405;BME280;57084;52.046;5.632;2023-01-25T02:58:00;103630;;;3.0;67.5
69405;BME280;57084;52.046;5.632;2023-01-25T02:59:00;103630;;;3.0;67.5
69405;BME280;57084;52.046;5.632;2023-01-25T03:00:00;103630;;;3.0;67.4
69405;BME280;57084;52.046;5.632;2023-01-25T03:01:00;103630;;;3.0;67.4
69405;BME280;57084;52.046;5.632;2023-01-25T03:02:00;103630;;;3.0;67.4
69405;BME280;57084;52.046;5.632;2023-01-25T03:03:00;103630;;;3.0;67.4
69405;BME280;57084;52.046;5.632;2023-01-25T03:04:00;103630;;;3.1;67.4
69405;BME280;57084;52.046;5.632;2023-01-25T03:05:00;103630;;;3.1;67.4
69405;BME280;57084;52.046;5.632;2023-01-25T03:06:00;103630;;;3.1;67.4
69405;BME280;57084;52.046;5.632;2023-01-25T03:07:00;103630;;;3.1;67.4
69405;BME280;57084;52.046;5.632;2023-01-25T03:08:00;103630;;;3.1;67.3
69405;BME280;57084;52.046;5.632;2023-01-25T03:09:00;103630;;;3.1;67.3
69405;BME280;57084;52.046;5.632;2023-01-25T03:10:00;103630;;;3.1;67.3
69405;BME280;57084;52.046;5.632;2023-01-25T03:11:01;103630;;;3.1;67.3
69405;BME280;57084;52.046;5.632;2023-01-25T03:12:00;103620;;;3.1;67.3
69405;BME280;57084;52.046;5.632;2023-01-25T03:13:00;103620;;;3.1;67.3
69405;BME280;57084;52.046;5.632;2023-01-25T03:14:00;103620;;;3.1;67.3
69405;BME280;57084;52.046;5.632;2023-01-25T03:15:00;103620;;;3.1;67.3
69405;BME280;57084;52.046;5.632;2023-01-25T03:16:01;103610;;;3.1;67.3
69405;BME280;57084;52.046;5.632;2023-01-25T03:17:00;103610;;;3.1;67.3
69405;BME280;57084;52.046;5.632;2023-01-25T03:18:00;103610;;;3.1;67.3
69405;BME280;57084;52.046;5.632;2023-01-25T03:19:00;103610;;;3.1;67.3
69405;BME280;57084;52.046;5.632;2023-01-25T03:20:00;103610;;;3.1;67.3
69405;BME280;57084;52.046;5.632;2023-01-25T03:21:04;103610;;;3.1;67.3
69405;BME280;57084;52.046;5.632;2023-01-25T03:22:00;103600;;;3.1;67.3
69405;BME280;57084;52.046;5.632;2023-01-25T03:23:00;103600;;;3.1;67.3
69405;BME280;57084;52.046;5.632;2023-01-25T03:24:00;103600;;;3.1;67.3
69405;BME280;57084;52.046;5.632;2023-01-25T03:25:00;103600;;;3.1;67.3
69405;BME280;57084;52.046;5.632;2023-01-25T03:26:04;103590;;;3.1;67.2
69405;BME280;57084;52.046;5.632;2023-01-25T03:27:00;103590;;;3.1;67.2
69405;BME280;57084;52.046;5.632;2023-01-25T03:28:00;103590;;;3.1;67.3
69405;BME280;57084;52.046;5.632;2023-01-25T03:29:00;103590;;;3.1;67.3
69405;BME280;57084;52.046;5.632;2023-01-25T03:30:00;103590;;;3.1;67.2
69405;BME280;57084;52.046;5.632;2023-01-25T03:31:00;103590;;;3.1;67.2
69405;BME280;57084;52.046;5.632;2023-01-25T03:32:00;103590;;;3.0;67.3
69405;BME280;57084;52.046;5.632;2023-01-25T03:33:00;103590;;;3.0;67.3
69405;BME280;57084;52.046;5.632;2023-01-25T03:34:00;103590;;;3.0;67.3
69405;BME280;57084;52.046;5.632;2023-01-25T03:35:00;103590;;;3.0;67.3
69405;BME280;57084;52.046;5.632;2023-01-25T03:36:00;103600;;;3.0;67.3
69405;BME280;57084;52.046;5.632;2023-01-25T03:37:00;103600;;;3.0;67.3
69405;BME280;57084;52.046;5.632;2023-01-25T03:38:00;103590;;;3.0;67.3
69405;BME280;57084;52.046;5.632;2023-01-25T03:39:00;103590;;;3.0;67.3
69405;BME280;57084;52.046;5.632;2023-01-25T03:40:00;103590;;;3.1;67.3
69405;BME280;57084;52.046;5.632;2023-01-25T03:41:00;103590;;;3.1;67.3
69405;BME280;57084;52.046;5.632;2023-01-25T03:42:00;103590;;;3.1;67.3
69405;BME280;57084;52.046;5.632;2023-01-25T03:43:02;103590;;;3.1;67.3
69405;BME280;57084;52.046;5.632;2023-01-25T03:44:00;103590;;;3.1;67.2
69405;BME280;57084;52.046;5.632;2023-01-25T03:45:00;103590;;;3.1;67.2
69405;BME280;57084;52.046;5.632;2023-01-25T03:46:00;103580;;;3.1;67.2
69405;BME280;57084;52.046;5.632;2023-01-25T03:47:00;103580;;;3.1;67.2
69405;BME280;57084;52.046;5.632;2023-01-25T03:48:00;103590;;;3.1;67.2
69405;BME280;57084;52.046;5.632;2023-01-25T03:49:00;103590;;;3.1;67.2
69405;BME280;57084;52.046;5.632;2023-01-25T03:50:00;103580;;;3.1;67.2
69405;BME280;57084;52.046;5.632;2023-01-25T03:51:00;103580;;;3.1;67.2
69405;BME280;57084;52.046;5.632;2023-01-25T03:52:00;103580;;;3.1;67.2
69405;BME280;57084;52.046;5.632;2023-01-25T03:53:00;103580;;;3.1;67.2
69405;BME280;57084;52.046;5.632;2023-01-25T03:54:00;103580;;;3.1;67.2
69405;BME280;57084;52.046;5.632;2023-01-25T03:55:00;103580;;;3.1;67.2
69405;BME280;57084;52.046;5.632;2023-01-25T03:56:01;103580;;;3.1;67.1
69405;BME280;57084;52.046;5.632;2023-01-25T03:57:00;103580;;;3.1;67.1
69405;BME280;57084;52.046;5.632;2023-01-25T03:58:00;103580;;;3.1;67.1
69405;BME280;57084;52.046;5.632;2023-01-25T03:59:00;103580;;;3.1;67.1
69405;BME280;57084;52.046;5.632;2023-01-25T04:00:00;103580;;;3.1;67.1
69405;BME280;57084;52.046;5.632;2023-01-25T04:01:00;103580;;;3.1;67.1
69405;BME280;57084;52.046;5.632;2023-01-25T04:02:00;103580;;;3.1;67.1
69405;BME280;57084;52.046;5.632;2023-01-25T04:03:00;103580;;;3.1;67.1
69405;BME280;57084;52.046;5.632;2023-01-25T04:04:00;103570;;;3.1;67.1
69405;BME280;57084;52.046;5.632;2023-01-25T04:05:00;103570;;;3.1;67.1
69405;BME280;57084;52.046;5.632;2023-01-25T04:06:00;103570;;;3.1;67.1
69405;BME280;57084;52.046;5.632;2023-01-25T04:07:00;103570;;;3.1;67.1
69405;BME280;57084;52.046;5.632;2023-01-25T04:08:00;103570;;;3.1;67.1
69405;BME280;57084;52.046;5.632;2023-01-25T04:09:00;103570;;;3.1;67.1
69405;BME280;57084;52.046;5.632;2023-01-25T04:10:00;103570;;;3.1;67.1
69405;BME280;57084;52.046;5.632;2023-01-25T04:11:00;103570;;;3.1;67.1
69405;BME280;57084;52.046;5.632;2023-01-25T04:12:00;103560;;;3.1;67.1
69405;BME280;57084;52.046;5.632;2023-01-25T04:13:00;103560;;;3.1;67.1
69405;BME280;57084;52.046;5.632;2023-01-25T04:14:00;103570;;;3.0;67.2
69405;BME280;57084;52.046;5.632;2023-01-25T04:15:00;103570;;;3.0;67.2
69405;BME280;57084;52.046;5.632;2023-01-25T04:16:00;103570;;;3.0;67.1
69405;BME280;57084;52.046;5.632;2023-01-25T04:17:00;103570;;;3.0;67.1
69405;BME280;57084;52.046;5.632;2023-01-25T04:18:00;103570;;;3.0;67.2
69405;BME280;57084;52.046;5.632;2023-01-25T04:19:00;103570;;;3.0;67.2
69405;BME280;57084;52.046;5.632;2023-01-25T04:20:00;103570;;;3.0;67.2
69405;BME280;57084;52.046;5.632;2023-01-25T04:21:00;103570;;;3.0;67.2
69405;BME280;57084;52.046;5.632;2023-01-25T04:22:00;103560;;;3.0;67.2
69405;BME280;57084;52.046;5.632;2023-01-25T04:23:00;103560;;;3.0;67.2
69405;BME280;57084;52.046;5.632;2023-01-25T04:24:00;103560;;;3.0;67.2
69405;BME280;57084;52.046;5.632;2023-01-25T04:25:00;103560;;;3.0;67.2
69405;BME280;57084;52.046;5.632;2023-01-25T04:26:01;103560;;;3.0;67.1
69405;BME280;57084;52.046;5.632;2023-01-25T04:27:00;103560;;;3.0;67.1
69405;BME280;57084;52.046;5.632;2023-01-25T04:28:00;103560;;;3.0;67.2
69405;BME280;57084;52.046;5.632;2023-01-25T04:29:00;103560;;;3.0;67.2
69405;BME280;57084;52.046;5.632;2023-01-25T04:30:00;103560;;;3.0;67.1
69405;BME280;57084;52.046;5.632;2023-01-25T04:31:00;103560;;;3.0;67.1
69405;BME280;57084;52.046;5.632;2023-01-25T04:32:00;103560;;;3.0;67.1
69405;BME280;57084;52.046;5.632;2023-01-25T04:33:02;103560;;;3.0;67.1
69405;BME280;57084;52.046;5.632;2023-01-25T04:34:00;103550;;;3.0;67.1
69405;BME280;57084;52.046;5.632;2023-01-25T04:35:00;103550;;;3.0;67.1
69405;BME280;57084;52.046;5.632;2023-01-25T04:36:00;103550;;;3.0;67.1
69405;BME280;57084;52.046;5.632;2023-01-25T04:37:00;103550;;;3.0;67.1
69405;BME280;57084;52.046;5.632;2023-01-25T04:38:00;103540;;;3.0;67.2
69405;BME280;57084;52.046;5.632;2023-01-25T04:39:00;103540;;;3.0;67.2
69405;BME280;57084;52.046;5.632;2023-01-25T04:40:00;103540;;;3.0;67.2
69405;BME280;57084;52.046;5.632;2023-01-25T04:41:00;103540;;;3.0;67.2
69405;BME280;57084;52.046;5.632;2023-01-25T04:42:00;103540;;;3.0;67.1
69405;BME280;57084;52.046;5.632;2023-01-25T04:43:00;103540;;;3.0;67.1
69405;BME280;57084;52.046;5.632;2023-01-25T04:44:00;103540;;;3.0;67.1
69405;BME280;57084;52.046;5.632;2023-01-25T04:45:00;103540;;;3.0;67.1
69405;BME280;57084;52.046;5.632;2023-01-25T04:46:00;103540;;;3.0;67.1
69405;BME280;57084;52.046;5.632;2023-01-25T04:47:00;103540;;;3.0;67.1
69405;BME280;57084;52.046;5.632;2023-01-25T04:48:01;103540;;;3.0;67.2
69405;BME280;57084;52.046;5.632;2023-01-25T04:49:00;103540;;;3.0;67.2
69405;BME280;57084;52.046;5.632;2023-01-25T04:50:00;103540;;;3.0;67.2
69405;BME280;57084;52.046;5.632;2023-01-25T04:51:00;103540;;;3.0;67.2
69405;BME280;57084;52.046;5.632;2023-01-25T04:52:00;103530;;;3.0;67.1
69405;BME280;57084;52.046;5.632;2023-01-25T04:53:00;103530;;;3.0;67.1
69405;BME280;57084;52.046;5.632;2023-01-25T04:54:00;103540;;;3.0;67.2
69405;BME280;57084;52.046;5.632;2023-01-25T04:55:00;103540;;;3.0;67.2
69405;BME280;57084;52.046;5.632;2023-01-25T04:56:00;103540;;;3.0;67.1
69405;BME280;57084;52.046;5.632;2023-01-25T04:57:00;103540;;;3.0;67.1
69405;BME280;57084;52.046;5.632;2023-01-25T04:58:00;103540;;;3.0;67.2
69405;BME280;57084;52.046;5.632;2023-01-25T04:59:00;103540;;;3.0;67.2
69405;BME280;57084;52.046;5.632;2023-01-25T05:00:00;103530;;;3.0;67.1
69405;BME280;57084;52.046;5.632;2023-01-25T05:01:00;103530;;;3.0;67.1
69405;BME280;57084;52.046;5.632;2023-01-25T05:02:00;103530;;;3.0;67.1
69405;BME280;57084;52.046;5.632;2023-01-25T05:03:01;103530;;;3.0;67.1
69405;BME280;57084;52.046;5.632;2023-01-25T05:04:00;103530;;;3.0;67.1
69405;BME280;57084;52.046;5.632;2023-01-25T05:05:00;103530;;;3.0;67.1
69405;BME280;57084;52.046;5.632;2023-01-25T05:06:00;103540;;;3.0;67.1
69405;BME280;57084;52.046;5.632;2023-01-25T05:07:00;103540;;;3.0;67.1
69405;BME280;57084;52.046;5.632;2023-01-25T05:08:00;103540;;;3.0;67.1
69405;BME280;57084;52.046;5.632;2023-01-25T05:09:00;103540;;;3.0;67.1
69405;BME280;57084;52.046;5.632;2023-01-25T05:10:00;103530;;;3.0;67.1
69405;BME280;57084;52.046;5.632;2023-01-25T05:11:00;103530;;;3.0;67.1
69405;BME280;57084;52.046;5.632;2023-01-25T05:12:00;103530;;;3.0;67.1
69405;BME280;57084;52.046;5.632;2023-01-25T05:13:00;103530;;;3.0;67.1
69405;BME280;57084;52.046;5.632;2023-01-25T05:14:00;103530;;;3.0;67.1
69405;BME280;57084;52.046;5.632;2023-01-25T05:15:00;103530;;;3.0;67.1
69405;BME280;57084;52.046;5.632;2023-01-25T05:16:00;103530;;;3.0;67.1
69405;BME280;57084;52.046;5.632;2023-01-25T05:17:00;103530;;;3.0;67.1
69405;BME280;57084;52.046;5.632;2023-01-25T05:18:00;103530;;;3.0;67.2
69405;BME280;57084;52.046;5.632;2023-01-25T05:19:00;103530;;;3.0;67.2
69405;BME280;57084;52.046;5.632;2023-01-25T05:20:00;103530;;;3.0;67.2
69405;BME280;57084;52.046;5.632;2023-01-25T05:21:00;103530;;;3.0;67.2
69405;BME280;57084;52.046;5.632;2023-01-25T05:22:00;103520;;;2.9;67.2
69405;BME280;57084;52.046;5.632;2023-01-25T05:23:00;103520;;;2.9;67.2
69405;BME280;57084;52.046;5.632;2023-01-25T05:24:00;103530;;;3.0;67.2
69405;BME280;57084;52.046;5.632;2023-01-25T05:25:00;103530;;;3.0;67.2
69405;BME280;57084;52.046;5.632;2023-01-25T05:26:00;103530;;;3.0;67.1
69405;BME280;57084;52.046;5.632;2023-01-25T05:27:00;103530;;;3.0;67.1
69405;BME280;57084;52.046;5.632;2023-01-25T05:28:02;103520;;;3.0;67.2
69405;BME280;57084;52.046;5.632;2023-01-25T05:29:00;103520;;;3.0;67.2
69405;BME280;57084;52.046;5.632;2023-01-25T05:30:00;103520;;;3.0;67.1
69405;BME280;57084;52.046;5.632;2023-01-25T05:31:02;103520;;;3.0;67.1
69405;BME280;57084;52.046;5.632;2023-01-25T05:32:00;103520;;;3.0;67.1
69405;BME280;57084;52.046;5.632;2023-01-25T05:33:00;103520;;;3.0;67.1
69405;BME280;57084;52.046;5.632;2023-01-25T05:34:00;103510;;;3.0;67.1
69405;BME280;57084;52.046;5.632;2023-01-25T05:35:00;103510;;;3.0;67.1
69405;BME280;57084;52.046;5.632;2023-01-25T05:36:00;103510;;;3.0;67.1
69405;BME280;57084;52.046;5.632;2023-01-25T05:37:01;103510;;;3.0;67.1
69405;BME280;57084;52.046;5.632;2023-01-25T05:38:00;103520;;;3.0;67.1
69405;BME280;57084;52.046;5.632;2023-01-25T05:39:00;103520;;;3.0;67.1
69405;BME280;57084;52.046;5.632;2023-01-25T05:40:00;103510;;;2.9;67.1